createdAt,value
2023-10-09T00:02:30.085Z,15.35
2023-10-09T00:05:24.248Z,15.26
2023-10-09T00:08:10.392Z,15.29
2023-10-09T00:10:55.530Z,15.25
2023-10-09T00:13:52.148Z,15.30
2023-10-09T00:16:41.617Z,15.22
2023-10-09T00:19:32.364Z,15.13
2023-10-09T00:22:39.150Z,15.05
2023-10-09T00:25:29.863Z,15.11
2023-10-09T00:28:22.583Z,15.08
2023-10-09T00:31:08.978Z,14.98
2023-10-09T00:33:55.743Z,15.01
2023-10-09T00:36:51.165Z,14.95
2023-10-09T00:39:36.867Z,14.97
2023-10-09T00:42:37.668Z,15.01
2023-10-09T00:45:27.576Z,14.97
2023-10-09T00:48:16.100Z,15.01
2023-10-09T00:51:01.886Z,15.02
2023-10-09T00:53:52.031Z,15.00
2023-10-09T00:56:42.921Z,14.87
2023-10-09T00:59:28.640Z,14.87
2023-10-09T01:02:19.585Z,14.65
2023-10-09T01:05:12.641Z,14.69
2023-10-09T01:07:59.650Z,14.80
2023-10-09T01:10:57.258Z,14.96
2023-10-09T01:13:53.675Z,14.82
2023-10-09T01:16:42.570Z,14.83
2023-10-09T01:19:31.817Z,14.83
2023-10-09T01:22:18.706Z,14.70
2023-10-09T01:25:07.054Z,14.54
2023-10-09T01:27:53.187Z,14.62
2023-10-09T01:30:42.579Z,14.62
2023-10-09T01:33:29.678Z,14.64
2023-10-09T01:36:16.339Z,14.59
2023-10-09T01:39:11.723Z,14.65
2023-10-09T01:42:00.289Z,14.60
2023-10-09T01:44:45.087Z,14.50
2023-10-09T01:47:32.673Z,14.49
2023-10-09T01:50:23.145Z,14.47
2023-10-09T01:53:18.130Z,14.41
2023-10-09T01:56:15.870Z,14.21
2023-10-09T01:59:06.717Z,14.40
2023-10-09T02:01:55.753Z,14.30
2023-10-09T02:04:42.071Z,14.35
2023-10-09T02:07:35.477Z,14.39
2023-10-09T02:10:26.956Z,14.46
2023-10-09T02:13:12.302Z,14.50
2023-10-09T02:16:16.830Z,14.52
2023-10-09T02:19:07.777Z,14.65
2023-10-09T02:21:54.565Z,14.75
2023-10-09T02:24:49.648Z,14.75
2023-10-09T02:27:53.368Z,14.69
2023-10-09T02:30:43.480Z,14.69
2023-10-09T02:33:29.465Z,14.74
2023-10-09T02:36:14.879Z,14.75
2023-10-09T02:39:00.284Z,14.67
2023-10-09T02:41:50.848Z,14.68
2023-10-09T02:44:41.864Z,14.68
2023-10-09T02:47:32.601Z,14.68
2023-10-09T02:50:21.804Z,14.70
2023-10-09T02:53:11.795Z,14.72
2023-10-09T02:56:13.666Z,14.63
2023-10-09T02:59:06.741Z,14.59
2023-10-09T03:01:55.202Z,14.65
2023-10-09T03:04:43.923Z,14.58
2023-10-09T03:07:29.049Z,14.60
2023-10-09T03:10:14.076Z,14.48
2023-10-09T03:13:02.776Z,14.51
2023-10-09T03:15:49.372Z,14.48
2023-10-09T03:18:34.609Z,14.47
2023-10-09T03:21:21.012Z,14.57
2023-10-09T03:24:06.173Z,14.57
2023-10-09T03:26:51.287Z,14.63
2023-10-09T03:29:36.378Z,14.56
2023-10-09T03:32:21.323Z,14.65
2023-10-09T03:35:07.827Z,14.62
2023-10-09T03:38:00.147Z,14.65
2023-10-09T03:40:49.233Z,14.71
2023-10-09T03:43:40.172Z,14.71
2023-10-09T03:46:34.039Z,14.65
2023-10-09T03:49:24.443Z,14.29
2023-10-09T03:52:10.532Z,14.43
2023-10-09T03:54:56.319Z,14.59
2023-10-09T03:57:46.256Z,14.64
2023-10-09T04:00:32.330Z,14.74
2023-10-09T04:03:17.991Z,14.71
2023-10-09T04:06:05.309Z,14.73
2023-10-09T04:08:53.029Z,14.69
2023-10-09T04:11:38.694Z,14.73
2023-10-09T04:14:34.635Z,14.75
2023-10-09T04:17:26.007Z,14.68
2023-10-09T04:20:17.503Z,14.71
2023-10-09T04:23:07.466Z,14.73
2023-10-09T04:25:53.912Z,14.88
2023-10-09T04:28:43.647Z,15.03
2023-10-09T04:31:33.528Z,15.22
2023-10-09T04:34:23.367Z,15.49
2023-10-09T04:37:28.810Z,15.86
2023-10-09T04:40:16.070Z,16.22
2023-10-09T04:43:00.982Z,16.35
2023-10-09T04:46:05.141Z,16.38
2023-10-09T04:48:53.542Z,16.47
2023-10-09T04:51:56.880Z,16.51
2023-10-09T04:55:01.984Z,16.43
2023-10-09T04:58:02.621Z,16.60
2023-10-09T05:00:48.201Z,16.66
2023-10-09T05:03:44.825Z,16.68
2023-10-09T05:06:56.943Z,16.67
2023-10-09T05:09:56.965Z,16.76
2023-10-09T05:12:47.775Z,16.73
2023-10-09T05:15:35.919Z,16.53
2023-10-09T05:18:28.347Z,16.59
2023-10-09T05:21:13.273Z,16.75
2023-10-09T05:24:15.533Z,16.79
2023-10-09T05:27:19.854Z,16.82
2023-10-09T05:30:24.627Z,16.81
2023-10-09T05:33:28.498Z,16.70
2023-10-09T05:36:25.874Z,16.69
2023-10-09T05:39:43.101Z,16.71
2023-10-09T05:42:38.218Z,16.67
2023-10-09T05:45:42.761Z,16.70
2023-10-09T05:48:40.039Z,16.90
2023-10-09T05:51:44.849Z,17.09
2023-10-09T05:54:48.454Z,17.08
2023-10-09T05:57:53.696Z,17.05
2023-10-09T06:00:57.584Z,17.09
2023-10-09T06:04:18.346Z,17.10
2023-10-09T06:07:15.416Z,17.20
2023-10-09T06:10:11.635Z,17.18
2023-10-09T06:13:04.961Z,17.07
2023-10-09T06:16:10.454Z,16.96
2023-10-09T06:19:08.971Z,16.99
2023-10-09T06:22:04.626Z,16.95
2023-10-09T06:24:55.997Z,16.87
2023-10-09T06:27:48.562Z,16.91
2023-10-09T06:30:36.829Z,16.98
2023-10-09T06:33:30.468Z,17.07
2023-10-09T06:36:19.227Z,17.01
2023-10-09T06:39:23.380Z,16.98
2023-10-09T06:42:31.121Z,16.89
2023-10-09T06:45:19.607Z,16.70
2023-10-09T06:48:30.979Z,16.69
2023-10-09T06:51:28.455Z,16.73
2023-10-09T06:54:17.170Z,16.78
2023-10-09T06:57:14.182Z,16.76
2023-10-09T07:00:19.158Z,16.81
2023-10-09T07:03:12.626Z,16.79
2023-10-09T07:06:24.764Z,16.90
2023-10-09T07:09:10.067Z,16.98
2023-10-09T07:11:55.254Z,16.97
2023-10-09T07:14:40.733Z,17.01
2023-10-09T07:17:35.126Z,16.87
2023-10-09T07:20:38.868Z,16.88
2023-10-09T07:23:24.052Z,16.97
2023-10-09T07:26:19.376Z,17.03
2023-10-09T07:29:22.704Z,16.99
2023-10-09T07:32:13.710Z,17.28
2023-10-09T07:34:59.889Z,17.32
2023-10-09T07:37:52.009Z,17.22
2023-10-09T07:40:56.419Z,17.40
2023-10-09T07:43:51.890Z,17.53
2023-10-09T07:47:14.523Z,17.56
2023-10-09T07:50:00.391Z,17.64
2023-10-09T07:52:50.836Z,17.62
2023-10-09T07:55:40.466Z,17.63
2023-10-09T07:58:26.680Z,17.72
2023-10-09T08:01:23.753Z,17.69
2023-10-09T08:04:15.730Z,17.74
2023-10-09T08:08:02.511Z,17.97
2023-10-09T08:10:14.934Z,18.13
2023-10-09T08:13:00.320Z,18.29
2023-10-09T08:15:54.178Z,18.48
2023-10-09T08:18:46.737Z,18.38
2023-10-09T08:22:03.828Z,18.29
2023-10-09T08:24:58.242Z,18.29
2023-10-09T08:27:55.514Z,18.49
2023-10-09T08:31:03.288Z,18.41
2023-10-09T08:36:52.970Z,18.35
2023-10-09T08:39:38.130Z,18.40
2023-10-09T08:42:26.502Z,18.58
2023-10-09T08:45:15.650Z,18.56
2023-10-09T08:48:05.895Z,18.54
2023-10-09T08:50:50.786Z,18.49
2023-10-09T08:53:36.143Z,18.46
2023-10-09T08:56:25.914Z,18.21
2023-10-09T08:59:11.932Z,18.52
2023-10-09T09:02:00.951Z,18.72
2023-10-09T09:04:46.986Z,18.87
2023-10-09T09:07:40.283Z,18.86
2023-10-09T09:10:37.052Z,18.99
2023-10-09T09:13:22.063Z,19.19
2023-10-09T09:16:14.487Z,19.01
2023-10-09T09:19:10.043Z,18.90
2023-10-09T09:22:00.374Z,18.99
2023-10-09T09:25:04.155Z,18.84
2023-10-09T09:28:06.848Z,18.97
2023-10-09T09:30:52.440Z,19.25
2023-10-09T09:33:44.250Z,19.72
2023-10-09T09:36:31.792Z,20.12
2023-10-09T09:39:20.496Z,20.06
2023-10-09T09:42:08.490Z,19.57
2023-10-09T09:44:53.595Z,19.71
2023-10-09T09:47:39.407Z,20.22
2023-10-09T09:50:30.175Z,20.18
2023-10-09T09:53:19.247Z,20.35
2023-10-09T09:56:05.603Z,20.39
2023-10-09T09:58:54.975Z,20.26
2023-10-09T10:01:41.278Z,20.16
2023-10-09T10:04:31.674Z,21.22
2023-10-09T10:07:18.368Z,21.70
2023-10-09T10:10:09.498Z,21.91
2023-10-09T10:13:03.893Z,21.52
2023-10-09T10:16:10.067Z,21.72
2023-10-09T10:19:08.149Z,22.39
2023-10-09T10:21:54.004Z,22.22
2023-10-09T10:24:58.889Z,22.85
2023-10-09T10:28:01.509Z,21.90
2023-10-09T10:30:47.244Z,22.56
2023-10-09T10:33:57.182Z,22.02
2023-10-09T10:36:45.457Z,22.49
2023-10-09T10:39:45.517Z,22.26
2023-10-09T10:42:36.501Z,22.50
2023-10-09T10:45:36.808Z,22.67
2023-10-09T10:48:38.510Z,22.24
2023-10-09T10:51:23.854Z,22.28
2023-10-09T10:54:28.753Z,22.11
2023-10-09T10:57:30.091Z,22.02
2023-10-09T11:00:35.182Z,21.99
2023-10-09T11:03:31.611Z,22.33
2023-10-09T11:06:26.175Z,22.59
2023-10-09T11:09:22.517Z,22.40
2023-10-09T11:12:22.701Z,22.45
2023-10-09T11:15:23.922Z,22.44
2023-10-09T11:18:14.339Z,22.53
2023-10-09T11:21:19.945Z,22.79
2023-10-09T11:24:23.834Z,22.92
2023-10-09T11:27:17.917Z,22.76
2023-10-09T11:30:06.773Z,22.51
2023-10-09T11:32:54.437Z,22.40
2023-10-09T11:35:39.517Z,22.57
2023-10-09T11:38:25.311Z,22.55
2023-10-09T11:41:20.540Z,22.76
2023-10-09T11:44:06.072Z,22.59
2023-10-09T11:47:29.725Z,22.84
2023-10-09T11:50:14.783Z,22.81
2023-10-09T11:53:20.873Z,22.79
2023-10-09T11:56:06.031Z,22.85
2023-10-09T11:58:51.768Z,23.13
2023-10-09T12:01:38.293Z,22.91
2023-10-09T12:04:31.317Z,22.52
2023-10-09T12:07:17.210Z,22.43
2023-10-09T12:10:02.392Z,22.54
2023-10-09T12:12:47.615Z,22.46
2023-10-09T12:15:39.363Z,22.45
2023-10-09T12:18:25.117Z,22.59
2023-10-09T12:21:16.691Z,22.55
2023-10-09T12:24:02.919Z,22.49
2023-10-09T12:26:49.144Z,22.42
2023-10-09T12:29:34.123Z,22.45
2023-10-09T12:32:21.827Z,22.45
2023-10-09T12:35:18.172Z,22.54
2023-10-09T12:38:04.297Z,22.31
2023-10-09T12:40:52.220Z,22.48
2023-10-09T12:43:40.235Z,22.39
2023-10-09T12:46:27.063Z,22.51
2023-10-09T12:49:12.581Z,22.21
2023-10-09T12:51:58.599Z,22.38
2023-10-09T12:54:44.188Z,22.41
2023-10-09T12:57:29.589Z,22.27
2023-10-09T13:00:26.278Z,22.28
2023-10-09T13:03:18.872Z,22.34
2023-10-09T13:06:08.294Z,22.41
2023-10-09T13:08:53.617Z,22.32
2023-10-09T13:11:41.568Z,22.33
2023-10-09T13:14:26.532Z,22.15
2023-10-09T13:17:12.243Z,22.31
2023-10-09T13:19:57.596Z,22.33
2023-10-09T13:22:49.918Z,22.00
2023-10-09T13:25:40.770Z,22.01
2023-10-09T13:28:26.065Z,22.07
2023-10-09T13:31:12.187Z,21.99
2023-10-09T13:33:57.725Z,22.17
2023-10-09T13:36:54.028Z,22.08
2023-10-09T13:39:41.169Z,22.11
2023-10-09T13:42:26.861Z,22.11
2023-10-09T13:45:16.747Z,22.23
2023-10-09T13:48:04.177Z,22.23
2023-10-09T13:50:58.555Z,22.10
2023-10-09T13:53:48.889Z,22.18
2023-10-09T13:56:39.978Z,21.78
2023-10-09T13:59:27.713Z,21.84
2023-10-09T14:02:18.871Z,21.71
2023-10-09T14:05:05.075Z,21.65
2023-10-09T14:07:50.062Z,21.64
2023-10-09T14:10:39.841Z,21.74
2023-10-09T14:13:29.242Z,21.66
2023-10-09T14:16:25.067Z,21.59
2023-10-09T14:19:14.209Z,21.52
2023-10-09T14:21:59.328Z,21.36
2023-10-09T14:24:46.186Z,21.47
2023-10-09T14:27:31.305Z,21.42
2023-10-09T14:30:24.232Z,21.44
2023-10-09T14:33:13.436Z,21.26
2023-10-09T14:35:59.249Z,21.24
2023-10-09T14:38:44.214Z,21.31
2023-10-09T14:41:34.152Z,21.35
2023-10-09T14:44:19.402Z,21.21
2023-10-09T14:47:06.631Z,21.13
2023-10-09T14:49:54.811Z,21.09
2023-10-09T14:52:40.756Z,20.93
2023-10-09T14:55:32.717Z,21.05
2023-10-09T14:58:18.745Z,21.02
2023-10-09T15:01:11.146Z,21.03
2023-10-09T15:03:58.699Z,20.91
2023-10-09T15:06:43.833Z,20.82
2023-10-09T15:09:32.505Z,20.74
2023-10-09T15:12:18.021Z,20.75
2023-10-09T15:15:05.090Z,20.66
2023-10-09T15:17:50.299Z,20.67
2023-10-09T15:20:36.509Z,20.54
2023-10-09T15:23:21.947Z,20.58
2023-10-09T15:26:08.006Z,20.49
2023-10-09T15:28:53.277Z,20.46
2023-10-09T15:31:40.004Z,20.40
2023-10-09T15:34:25.893Z,20.26
2023-10-09T15:37:11.062Z,20.20
2023-10-09T15:39:55.914Z,20.17
2023-10-09T15:42:42.658Z,20.24
2023-10-09T15:45:30.099Z,20.26
2023-10-09T15:48:16.436Z,20.22
2023-10-09T15:51:01.834Z,20.27
2023-10-09T15:53:47.390Z,20.29
2023-10-09T15:56:32.329Z,20.29
2023-10-09T15:59:17.873Z,20.16
2023-10-09T16:02:04.426Z,20.01
2023-10-09T16:04:49.431Z,19.97
2023-10-09T16:07:34.416Z,19.93
2023-10-09T16:10:21.560Z,19.89
2023-10-09T16:13:10.940Z,19.88
2023-10-09T16:16:00.595Z,19.75
2023-10-09T16:18:45.526Z,19.71
2023-10-09T16:21:30.801Z,19.76
2023-10-09T16:24:16.443Z,19.68
2023-10-09T16:27:01.504Z,19.59
2023-10-09T16:29:48.995Z,19.50
2023-10-09T16:32:34.102Z,19.44
2023-10-09T16:35:23.021Z,19.45
2023-10-09T16:38:13.384Z,19.49
2023-10-09T16:41:02.489Z,19.45
2023-10-09T16:43:47.560Z,19.30
2023-10-09T16:46:32.934Z,19.21
2023-10-09T16:49:19.792Z,19.14
2023-10-09T16:52:12.033Z,19.07
2023-10-09T16:54:57.163Z,19.01
2023-10-09T16:57:42.439Z,18.91
2023-10-09T17:00:30.523Z,18.87
2023-10-09T17:03:15.941Z,18.82
2023-10-09T17:06:05.217Z,18.73
2023-10-09T17:08:51.911Z,18.72
2023-10-09T17:11:37.725Z,18.72
2023-10-09T17:14:27.222Z,18.65
2023-10-09T17:17:12.869Z,18.53
2023-10-09T17:19:59.119Z,18.40
2023-10-09T17:22:44.470Z,18.26
2023-10-09T17:25:33.484Z,18.11
2023-10-09T17:28:18.638Z,17.81
2023-10-09T17:31:04.736Z,17.71
2023-10-09T17:33:51.128Z,17.72
2023-10-09T17:36:36.504Z,17.77
2023-10-09T17:39:27.197Z,17.83
2023-10-09T17:42:12.191Z,17.84
2023-10-09T17:44:57.398Z,17.81
2023-10-09T17:47:42.833Z,17.84
2023-10-09T17:50:27.723Z,17.88
2023-10-09T17:53:15.016Z,18.05
2023-10-09T17:56:00.449Z,18.01
2023-10-09T17:58:51.145Z,17.98
2023-10-09T18:01:36.551Z,17.90
2023-10-09T18:04:21.589Z,17.88
2023-10-09T18:07:06.445Z,17.81
2023-10-09T18:09:54.298Z,17.76
2023-10-09T18:12:39.671Z,17.75
2023-10-09T18:15:25.090Z,17.76
2023-10-09T18:18:13.344Z,17.67
2023-10-09T18:20:58.723Z,17.67
2023-10-09T18:23:48.149Z,17.56
2023-10-09T18:26:35.507Z,17.44
2023-10-09T18:29:20.524Z,17.35
2023-10-09T18:32:05.885Z,17.22
2023-10-09T18:34:51.705Z,17.16
2023-10-09T18:37:40.976Z,17.04
2023-10-09T18:40:36.702Z,16.94
2023-10-09T18:43:21.819Z,16.91
2023-10-09T18:46:11.604Z,16.87
2023-10-09T18:49:02.099Z,16.84
2023-10-09T18:51:47.673Z,16.83
2023-10-09T18:54:37.414Z,16.78
2023-10-09T18:57:25.034Z,16.80
2023-10-09T19:00:31.237Z,16.77
2023-10-09T19:03:17.974Z,16.75
2023-10-09T19:06:09.157Z,16.77
2023-10-09T19:08:56.171Z,16.66
2023-10-09T19:11:41.116Z,16.69
2023-10-09T19:14:26.903Z,16.84
2023-10-09T19:17:12.591Z,16.95
2023-10-09T19:19:58.410Z,16.99
2023-10-09T19:22:44.637Z,17.00
2023-10-09T19:25:33.896Z,17.05
2023-10-09T19:28:19.183Z,17.10
2023-10-09T19:31:06.372Z,17.08
2023-10-09T19:33:52.963Z,17.08
2023-10-09T19:36:39.567Z,17.11
2023-10-09T19:39:24.807Z,17.00
2023-10-09T19:42:09.890Z,16.87
2023-10-09T19:44:55.305Z,16.81
2023-10-09T19:47:43.988Z,16.80
2023-10-09T19:50:29.270Z,16.75
2023-10-09T19:53:15.395Z,16.71
2023-10-09T19:56:01.144Z,16.70
2023-10-09T19:58:47.276Z,16.64
2023-10-09T20:01:32.479Z,16.54
2023-10-09T20:04:17.423Z,16.47
2023-10-09T20:07:02.708Z,16.48
2023-10-09T20:09:47.953Z,16.51
2023-10-09T20:12:36.169Z,16.52
2023-10-09T20:15:22.266Z,16.56
2023-10-09T20:18:08.167Z,16.50
2023-10-09T20:20:53.042Z,16.46
2023-10-09T20:23:40.310Z,16.37
2023-10-09T20:26:26.122Z,16.32
2023-10-09T20:29:14.575Z,16.27
2023-10-09T20:32:00.596Z,16.18
2023-10-09T20:34:45.755Z,16.14
2023-10-09T20:37:30.862Z,16.05
2023-10-09T20:40:23.722Z,15.99
2023-10-09T20:43:08.854Z,15.93
2023-10-09T20:45:53.877Z,15.91
2023-10-09T20:48:39.529Z,15.89
2023-10-09T20:51:24.709Z,15.94
2023-10-09T20:54:10.649Z,16.00
2023-10-09T20:56:55.755Z,15.98
2023-10-09T20:59:43.368Z,15.92
2023-10-09T21:02:28.736Z,15.91
2023-10-09T21:05:15.310Z,15.90
2023-10-09T21:08:00.617Z,15.88
2023-10-09T21:10:45.377Z,15.81
2023-10-09T21:13:32.389Z,15.77
2023-10-09T21:16:17.884Z,15.71
2023-10-09T21:19:03.144Z,15.66
2023-10-09T21:21:48.219Z,15.59
2023-10-09T21:24:33.199Z,15.51
2023-10-09T21:27:18.098Z,15.41
2023-10-09T21:30:05.414Z,15.34
2023-10-09T21:32:51.588Z,15.33
2023-10-09T21:35:39.132Z,15.35
2023-10-09T21:38:26.218Z,15.27
2023-10-09T21:41:18.939Z,15.24
2023-10-09T21:44:05.101Z,15.23
2023-10-09T21:46:51.627Z,15.21
2023-10-09T21:49:36.991Z,15.15
2023-10-09T21:52:22.319Z,15.10
2023-10-09T21:55:09.332Z,15.07
2023-10-09T21:57:56.064Z,15.03
2023-10-09T22:00:47.696Z,15.01
2023-10-09T22:03:36.714Z,14.92
2023-10-09T22:06:24.539Z,14.85
2023-10-09T22:09:15.220Z,14.78
2023-10-09T22:12:00.523Z,14.77
2023-10-09T22:14:45.518Z,14.76
2023-10-09T22:17:30.881Z,14.78
2023-10-09T22:20:20.649Z,14.74
2023-10-09T22:23:12.004Z,14.71
2023-10-09T22:26:01.212Z,14.67
2023-10-09T22:28:47.885Z,14.65
2023-10-09T22:31:39.720Z,14.63
2023-10-09T22:34:27.142Z,14.65
2023-10-09T22:37:16.901Z,14.66
2023-10-09T22:40:02.300Z,14.62
2023-10-09T22:42:48.330Z,14.59
2023-10-09T22:45:34.722Z,14.55
2023-10-09T22:48:20.120Z,14.50
2023-10-09T22:51:11.661Z,14.50
2023-10-09T22:54:01.571Z,14.63
2023-10-09T22:56:47.328Z,14.64
2023-10-09T22:59:33.333Z,14.50
2023-10-09T23:02:44.125Z,14.43
2023-10-09T23:05:32.775Z,14.43
2023-10-09T23:08:18.381Z,14.38
2023-10-09T23:11:15.644Z,14.28
2023-10-09T23:14:19.332Z,14.27
2023-10-09T23:17:08.149Z,14.21
2023-10-09T23:19:56.038Z,14.17
2023-10-09T23:22:50.282Z,14.18
2023-10-09T23:25:35.330Z,14.23
2023-10-09T23:28:39.227Z,14.24
2023-10-09T23:31:26.846Z,14.20
2023-10-09T23:34:20.355Z,14.18
2023-10-09T23:37:05.450Z,14.18
2023-10-09T23:39:59.026Z,14.19
2023-10-09T23:42:59.441Z,14.13
2023-10-09T23:45:44.942Z,14.10
2023-10-09T23:48:34.059Z,14.04
2023-10-09T23:51:20.529Z,13.99
2023-10-09T23:54:11.299Z,13.99
2023-10-09T23:57:00.143Z,13.95
